Time;durP1;ratioP1;P1;durP2;ratioP2;P2;SDS_P1;SDS_P2;PMS_P1;PMS_P2;Temp;Humidity;BMP_temperature;BMP_pressure;BME280_temperature;BME280_humidity;BME280_pressure;Samples;Min_cycle;Max_cycle;Signal;HPM_P1;HPM_P2
2022/02/08 00:01:15;;;;;;;;;45.25;37.00;;;;;7.57;69.78;103058.72;5051997;28;45701;-71
2022/02/08 00:03:42;;;;;;;;;39.00;32.75;;;;;7.63;70.37;103055.28;5053826;28;45496;-71
2022/02/08 00:06:25;;;;;;;;;40.75;34.00;;;;;7.70;70.25;103057.03;5053998;28;45410;-71
2022/02/08 00:08:51;;;;;;;;;35.75;31.00;;;;;7.76;69.66;103059.69;5054611;28;45490;-71
2022/02/08 00:11:16;;;;;;;;;42.25;31.75;;;;;7.82;70.11;103056.22;5053672;28;46739;-71
2022/02/08 00:13:42;;;;;;;;;37.00;28.25;;;;;7.86;69.71;103052.78;5057289;28;45497;-71
2022/02/08 00:16:07;;;;;;;;;34.00;33.25;;;;;7.92;69.51;103051.94;5054219;28;45771;-71
2022/02/08 00:18:33;;;;;;;;;40.00;31.75;;;;;7.95;69.44;103051.97;5052829;28;45404;-71
2022/02/08 00:20:58;;;;;;;;;39.25;27.75;;;;;7.97;69.60;103056.31;5061761;28;46464;-71
2022/02/08 00:23:23;;;;;;;;;27.75;27.50;;;;;8.01;69.65;103057.22;5053865;28;45736;-71
2022/02/08 00:25:49;;;;;;;;;35.00;33.25;;;;;8.04;68.97;103054.63;5056267;28;46335;-71
2022/02/08 00:28:14;;;;;;;;;33.50;30.00;;;;;7.99;69.33;103038.03;5055932;28;45420;-71
2022/02/08 00:30:39;;;;;;;;;33.33;26.33;;;;;8.08;69.22;103052.00;5053347;28;52784;-71
2022/02/08 00:33:05;;;;;;;;;29.50;26.50;;;;;8.13;69.14;103043.28;5054438;28;45635;-71
2022/02/08 00:35:30;;;;;;;;;29.75;24.50;;;;;8.11;69.10;103031.06;5042970;28;45471;-71
2022/02/08 00:37:55;;;;;;;;;24.75;23.25;;;;;8.17;69.19;103045.94;5055523;28;45400;-71
2022/02/08 00:40:21;;;;;;;;;33.75;24.50;;;;;8.19;69.42;103041.56;5054429;28;45371;-71
2022/02/08 00:42:46;;;;;;;;;26.25;23.00;;;;;8.17;69.38;103026.72;5053474;28;45366;-71
2022/02/08 00:45:24;;;;;;;;;24.25;24.00;;;;;8.21;69.01;103034.63;5053677;28;45396;-71
2022/02/08 00:47:56;;;;;;;;;30.50;24.00;;;;;8.27;69.25;103033.75;5053573;28;48124;-71
2022/02/08 00:50:21;;;;;;;;;37.75;23.00;;;;;8.30;69.27;103037.28;5053044;28;45880;-71
2022/02/08 00:52:47;;;;;;;;;21.50;19.00;;;;;8.30;68.60;103032.03;5051281;28;45443;-71
2022/02/08 00:55:13;;;;;;;;;28.25;25.50;;;;;8.30;68.92;103036.38;5053257;28;45934;-71
2022/02/08 00:57:39;;;;;;;;;27.75;20.25;;;;;8.24;68.71;103039.84;5052218;28;45534;-71
2022/02/08 01:00:07;;;;;;;;;29.00;21.50;;;;;8.24;69.16;103045.09;5053934;28;45455;-71
2022/02/08 01:02:33;;;;;;;;;25.00;23.50;;;;;8.20;69.13;103038.09;5052782;28;45470;-71
2022/02/08 01:05:01;;;;;;;;;31.25;21.75;;;;;8.17;69.08;103043.31;5052512;28;48270;-71
2022/02/08 01:07:27;;;;;;;;;21.75;19.00;;;;;8.21;69.07;103044.22;5053976;28;45593;-71
2022/02/08 01:09:57;;;;;;;;;19.75;19.50;;;;;8.26;69.02;103051.22;5051091;28;46504;-71
2022/02/08 01:12:24;;;;;;;;;24.25;20.75;;;;;8.34;69.12;103051.22;5052891;28;45873;-71
2022/02/08 01:14:52;;;;;;;;;24.00;22.00;;;;;8.40;69.05;103055.66;5053453;28;45566;-71
2022/02/08 01:17:19;;;;;;;;;26.00;23.75;;;;;8.42;69.37;103052.19;5053167;28;45467;-71
2022/02/08 01:20:11;;;;;;;;;20.00;19.25;;;;;8.42;69.20;103046.94;5056214;28;46324;-71
2022/02/08 01:22:31;;;;;;;;;24.50;20.50;;;;;8.41;69.13;103047.81;5054268;28;45912;-71
2022/02/08 01:24:57;;;;;;;;;23.75;19.75;;;;;8.43;69.09;103056.53;5047923;28;45516;-71
2022/02/08 01:27:26;;;;;;;;;24.75;22.50;;;;;8.43;68.97;103059.16;5062197;27;45334;-71
2022/02/08 01:29:56;;;;;;;;;23.50;21.75;;;;;8.46;69.09;103063.56;5052690;28;47081;-71
2022/02/08 01:45:58;;;;;;;;;17.50;17.50;;;;;8.52;69.02;103051.34;5008982;28;45783;-71
2022/02/08 01:50:55;;;;;;;;;19.75;15.50;;;;;8.67;69.12;103066.22;5008076;28;45559;-71
2022/02/08 01:53:21;;;;;;;;;24.25;19.50;;;;;8.70;68.93;103063.59;5012011;28;45888;-71
2022/02/08 01:55:47;;;;;;;;;19.75;16.25;;;;;8.72;68.94;103060.97;5009852;28;45471;-72
2022/02/08 01:58:13;;;;;;;;;20.50;15.75;;;;;8.73;69.13;103050.50;5008530;28;45347;-71
2022/02/08 02:00:38;;;;;;;;;21.50;19.50;;;;;8.76;68.66;103049.63;5008694;28;46501;-71
2022/02/08 02:03:04;;;;;;;;;23.25;18.25;;;;;8.79;68.70;103060.13;5008199;28;45501;-71
2022/02/08 02:05:30;;;;;;;;;20.00;17.50;;;;;8.84;68.45;103064.50;5010481;28;45522;-71
2022/02/08 02:07:56;;;;;;;;;18.50;16.75;;;;;8.81;68.63;103064.50;5010510;28;45402;-71
2022/02/08 02:10:22;;;;;;;;;16.25;14.00;;;;;8.83;68.66;103068.00;5008696;28;45530;-71
2022/02/08 02:12:50;;;;;;;;;17.50;14.00;;;;;8.85;68.36;103066.25;5008147;28;45510;-71
2022/02/08 02:15:15;;;;;;;;;19.25;15.50;;;;;8.76;68.21;103049.63;5008750;28;45315;-71
2022/02/08 02:17:40;;;;;;;;;19.00;16.75;;;;;8.81;68.52;103063.63;5009370;28;45304;-71
2022/02/08 02:20:06;;;;;;;;;19.50;16.75;;;;;8.82;68.53;103060.13;5024412;28;45561;-71
2022/02/08 02:22:31;;;;;;;;;20.25;15.00;;;;;8.85;68.54;103062.75;5055027;28;45496;-71
2022/02/08 02:24:57;;;;;;;;;19.75;15.00;;;;;8.85;68.56;103052.25;5052076;28;45563;-71
2022/02/08 02:27:22;;;;;;;;;15.00;14.00;;;;;8.81;68.76;103046.13;5051948;28;45374;-71
2022/02/08 02:29:47;;;;;;;;;14.50;13.75;;;;;8.79;68.39;103049.66;5052204;28;46302;-71
2022/02/08 02:32:13;;;;;;;;;16.75;14.25;;;;;8.78;68.62;103054.00;5052195;28;45730;-71
2022/02/08 02:34:45;;;;;;;;;17.25;12.00;;;;;8.81;68.70;103053.13;5051808;28;45423;-71
2022/02/08 02:37:12;;;;;;;;;13.00;11.50;;;;;8.83;68.62;103056.66;5056905;28;45250;-71
2022/02/08 02:39:37;;;;;;;;;22.00;15.75;;;;;8.83;68.87;103052.28;5051914;28;46406;-72
2022/02/08 02:42:13;;;;;;;;;16.50;11.75;;;;;8.82;68.39;103049.63;5051678;28;45345;-71
2022/02/08 02:44:38;;;;;;;;;17.50;15.00;;;;;8.84;68.62;103048.78;5051917;28;49702;-71
2022/02/08 02:47:03;;;;;;;;;18.75;13.50;;;;;8.86;68.41;103040.91;5046490;28;45630;-72
2022/02/08 02:49:29;;;;;;;;;14.25;12.25;;;;;8.87;68.27;103042.63;5053712;28;45461;-71
2022/02/08 02:51:55;;;;;;;;;20.25;15.25;;;;;8.85;68.37;103044.41;5049960;28;45757;-71
2022/02/08 02:54:20;;;;;;;;;16.50;11.00;;;;;8.87;68.46;103053.13;5051348;28;45570;-71
2022/02/08 02:56:47;;;;;;;;;15.50;10.75;;;;;8.74;68.88;103027.78;5051483;28;45870;-71
2022/02/08 02:59:14;;;;;;;;;16.25;11.75;;;;;8.88;68.66;103052.28;5044297;28;47647;-72
2022/02/08 03:18:21;;;;;;;;;13.50;11.50;;;;;8.86;68.21;103046.16;5051035;28;45512;-71
2022/02/08 03:20:41;;;;;;;;;16.75;14.50;;;;;8.88;68.33;103037.41;5041508;28;45630;-71
2022/02/08 03:23:06;;;;;;;;;12.75;10.00;;;;;8.87;68.73;103034.78;5056492;28;45420;-71
2022/02/08 03:25:31;;;;;;;;;17.00;11.25;;;;;8.89;68.76;103030.44;5055027;28;45325;-72
2022/02/08 03:27:57;;;;;;;;;16.00;13.25;;;;;8.88;68.91;103034.81;5056282;28;45442;-71
2022/02/08 03:30:23;;;;;;;;;11.75;8.00;;;;;8.88;69.00;103026.06;5054527;28;45707;-71
2022/02/08 03:32:48;;;;;;;;;15.75;12.75;;;;;8.89;68.51;103033.06;5055487;28;45300;-71
2022/02/08 03:35:16;;;;;;;;;17.25;11.00;;;;;8.90;68.78;103037.41;5055130;28;45427;-71
2022/02/08 03:37:44;;;;;;;;;12.50;10.25;;;;;8.90;69.13;103034.78;5053491;28;45428;-71
2022/02/08 03:40:19;;;;;;;;;15.25;9.75;;;;;8.91;69.13;103039.16;5054374;28;45469;-71
2022/02/08 03:42:59;;;;;;;;;8.00;7.75;;;;;8.89;68.71;103033.06;5055058;28;45959;-71
2022/02/08 03:45:25;;;;;;;;;7.75;7.00;;;;;8.88;69.11;103034.81;5054366;28;45439;-72
2022/02/08 03:47:50;;;;;;;;;12.00;8.00;;;;;8.86;69.10;103047.00;5054991;28;45543;-71
2022/02/08 03:50:15;;;;;;;;;12.50;10.75;;;;;8.85;69.27;103039.16;5054506;28;46429;-71
2022/02/08 03:52:41;;;;;;;;;11.25;10.25;;;;;8.78;69.37;103037.41;5058269;28;45404;-71
2022/02/08 03:55:07;;;;;;;;;14.00;10.00;;;;;8.80;69.22;103047.00;5054083;28;49047;-71
2022/02/08 03:57:32;;;;;;;;;16.25;7.50;;;;;8.79;69.21;103055.75;5053172;28;45447;-72
2022/02/08 03:59:58;;;;;;;;;14.25;10.25;;;;;8.79;69.10;103057.50;5052073;28;45933;-71
2022/02/08 04:04:59;;;;;;;;;10.75;10.75;;;;;8.80;69.52;103040.91;5056872;28;45325;-71
2022/02/08 04:07:32;;;;;;;;;7.25;6.75;;;;;8.84;69.47;103058.38;5057562;28;45383;-71
2022/02/08 04:10:01;;;;;;;;;10.75;6.25;;;;;8.87;69.66;103053.13;5054077;28;45697;-71
2022/02/08 04:12:52;;;;;;;;;13.25;7.75;;;;;8.88;69.44;103053.16;5054013;28;45322;-71
2022/02/08 04:39:11;;;;;;;;;10.00;7.75;;;;;8.94;69.52;103062.78;5053942;28;45547;-71
2022/02/08 04:41:59;;;;;;;;;12.00;6.75;;;;;8.92;69.42;103055.75;5053666;28;46383;-71
2022/02/08 04:47:25;;;;;;;;;5.75;4.00;;;;;8.91;69.80;103054.88;5036348;28;48132;-71
2022/02/08 04:49:53;;;;;;;;;12.00;7.00;;;;;8.81;69.86;103043.50;5053428;28;45868;-72
2022/02/08 04:52:20;;;;;;;;;13.75;7.25;;;;;8.90;69.86;103053.16;5062776;28;45419;-71
2022/02/08 04:54:52;;;;;;;;;9.00;8.25;;;;;8.87;69.52;103048.78;5054681;28;45439;-71
2022/02/08 04:57:31;;;;;;;;;8.25;6.50;;;;;8.87;69.78;103050.50;5051280;28;45445;-71
2022/02/08 05:43:45;;;;;;;;;11.25;7.50;;;;;8.96;70.73;103045.28;4992154;28;45577;-71
2022/02/08 05:48:42;;;;;;;;;10.75;9.75;;;;;8.99;70.75;103047.91;4992060;28;45586;-71
2022/02/08 05:51:16;;;;;;;;;10.75;10.75;;;;;9.02;70.89;103047.03;4990379;28;45387;-73
2022/02/08 05:53:46;;;;;;;;;15.50;10.00;;;;;9.05;70.66;103042.66;4986242;28;45768;-71
2022/02/08 05:56:13;;;;;;;;;7.75;6.50;;;;;9.05;70.91;103047.91;4988533;28;45510;-71
2022/02/08 05:58:43;;;;;;;;;10.25;6.00;;;;;9.07;71.00;103042.66;4992844;28;45594;-71
2022/02/08 06:01:09;;;;;;;;;10.25;5.75;;;;;9.10;70.98;103040.91;4988143;28;45489;-71
2022/02/08 06:03:34;;;;;;;;;8.00;6.75;;;;;9.11;71.17;103042.66;4990510;28;45651;-71
2022/02/08 06:05:59;;;;;;;;;12.75;7.00;;;;;9.02;71.21;103019.06;4989210;28;45569;-71
2022/02/08 06:08:25;;;;;;;;;14.25;7.25;;;;;9.12;71.10;103039.16;4990410;28;45425;-71
2022/02/08 06:10:56;;;;;;;;;11.50;7.50;;;;;9.10;71.21;103033.06;4993162;28;45319;-71
2022/02/08 06:13:22;;;;;;;;;7.75;5.75;;;;;9.10;71.30;103035.69;4991469;28;45498;-71
2022/02/08 06:15:49;;;;;;;;;10.50;10.00;;;;;9.13;71.59;103045.28;4991849;28;46475;-72
2022/02/08 06:18:15;;;;;;;;;10.75;7.25;;;;;9.13;71.73;103048.81;4983811;28;45985;-71
2022/02/08 06:20:41;;;;;;;;;11.00;7.00;;;;;9.14;72.03;103047.06;5027538;28;45424;-71
2022/02/08 06:23:06;;;;;;;;;7.25;6.00;;;;;9.13;71.41;103034.78;5052370;28;45623;-71
2022/02/08 06:25:32;;;;;;;;;9.25;9.25;;;;;9.14;71.99;103047.94;5053945;28;45387;-71
2022/02/08 06:27:57;;;;;;;;;12.50;8.00;;;;;9.14;71.87;103044.44;5050358;28;45667;-71
2022/02/08 06:30:23;;;;;;;;;12.50;8.25;;;;;9.15;71.68;103044.41;5050351;28;45578;-71
2022/02/08 06:32:53;;;;;;;;;11.00;8.50;;;;;9.15;72.07;103054.91;5043048;28;46597;-71
2022/02/08 06:35:24;;;;;;;;;12.25;7.00;;;;;9.14;72.19;103050.56;5052727;28;46212;-71
2022/02/08 06:37:51;;;;;;;;;7.50;7.00;;;;;9.10;72.00;103046.16;5051168;28;45424;-71
2022/02/08 06:40:18;;;;;;;;;11.00;7.50;;;;;9.01;72.43;103042.66;5054316;28;45364;-71
2022/02/08 06:42:44;;;;;;;;;13.25;7.00;;;;;9.07;72.67;103067.13;5051441;28;45494;-71
2022/02/08 06:45:11;;;;;;;;;7.25;7.00;;;;;9.07;72.33;103061.91;5053297;28;46269;-71
2022/02/08 06:47:39;;;;;;;;;13.75;7.00;;;;;9.03;72.95;103060.16;5049856;28;48149;-71
2022/02/08 06:50:06;;;;;;;;;12.50;8.00;;;;;9.03;72.99;103065.41;5052535;28;45420;-71
2022/02/08 06:52:31;;;;;;;;;10.00;6.50;;;;;9.05;73.06;103065.41;5053728;28;45422;-71
2022/02/08 06:54:56;;;;;;;;;17.00;8.00;;;;;9.06;72.90;103064.53;5051085;28;46376;-71
2022/02/08 06:57:24;;;;;;;;;11.00;8.50;;;;;9.06;73.03;103062.78;5051506;28;45410;-71
2022/02/08 06:59:54;;;;;;;;;11.00;8.00;;;;;9.08;73.06;103068.91;5053502;28;45745;-70
2022/02/08 07:02:20;;;;;;;;;7.75;7.25;;;;;9.04;73.44;103061.91;5051352;28;45420;-71
2022/02/08 07:04:46;;;;;;;;;10.50;9.50;;;;;9.08;73.30;103070.63;5051187;28;45604;-69
2022/02/08 07:07:15;;;;;;;;;13.25;7.75;;;;;9.11;73.34;103071.53;5053263;28;45460;-69
2022/02/08 07:09:45;;;;;;;;;13.00;7.25;;;;;9.09;73.79;103069.78;5053012;28;45337;-70
2022/02/08 07:12:11;;;;;;;;;15.00;12.00;;;;;9.14;73.77;103082.03;5050880;28;45980;-70
2022/02/08 07:14:36;;;;;;;;;10.25;8.00;;;;;9.05;73.52;103061.03;5049198;28;46346;-70
2022/02/08 07:17:02;;;;;;;;;11.00;9.00;;;;;9.13;73.98;103085.53;5051635;28;45462;-70
2022/02/08 07:19:27;;;;;;;;;15.00;8.75;;;;;9.15;73.92;103081.16;5051526;28;45391;-70
2022/02/08 07:21:52;;;;;;;;;13.00;10.00;;;;;9.16;74.25;103079.41;5049714;28;46869;-70
2022/02/08 07:24:19;;;;;;;;;13.75;11.50;;;;;9.21;74.03;103089.91;5050373;28;45468;-70
2022/02/08 07:26:51;;;;;;;;;11.50;9.00;;;;;9.24;74.24;103097.75;5051453;28;46037;-71
2022/02/08 07:29:16;;;;;;;;;12.00;6.75;;;;;9.19;74.15;103089.00;5050470;28;45393;-70
2022/02/08 07:31:51;;;;;;;;;16.00;9.50;;;;;9.26;74.32;103093.41;5052377;28;45514;-70
2022/02/08 07:34:42;;;;;;;;;11.75;10.00;;;;;9.31;74.13;103102.16;5052458;28;45477;-71
2022/02/08 07:39:41;;;;;;;;;15.50;12.00;;;;;9.35;74.24;103106.53;5051828;28;45791;-71
2022/02/08 07:42:07;;;;;;;;;10.50;10.00;;;;;9.38;74.33;103094.25;5052627;28;45518;-71
2022/02/08 07:44:33;;;;;;;;;11.75;8.00;;;;;9.45;74.40;103103.03;5052077;28;46455;-71
2022/02/08 07:46:59;;;;;;;;;13.25;9.00;;;;;9.48;74.40;103100.38;5067973;28;45549;-71
2022/02/08 07:49:24;;;;;;;;;8.25;8.00;;;;;9.51;74.47;103096.91;5052694;28;45409;-71
2022/02/08 07:51:50;;;;;;;;;15.75;10.50;;;;;9.53;74.41;103093.38;5051527;28;45508;-71
2022/02/08 07:54:15;;;;;;;;;15.25;15.25;;;;;9.55;74.44;103081.16;5051670;28;45574;-71
2022/02/08 07:56:40;;;;;;;;;17.75;13.50;;;;;9.57;74.64;103082.00;5051761;28;54382;-71
2022/02/08 07:59:06;;;;;;;;;16.75;10.75;;;;;9.61;74.78;103091.63;5050478;28;45874;-71
2022/02/08 08:01:31;;;;;;;;;17.00;11.75;;;;;9.63;74.68;103094.25;5050919;28;45513;-71
2022/02/08 08:03:57;;;;;;;;;14.50;7.75;;;;;9.63;74.63;103095.13;5051454;28;45366;-71
2022/02/08 08:06:23;;;;;;;;;14.75;10.50;;;;;9.65;74.54;103092.47;5053335;28;45498;-71
2022/02/08 08:08:49;;;;;;;;;11.25;9.25;;;;;9.67;74.51;103086.38;5055267;28;45370;-72
2022/02/08 08:11:22;;;;;;;;;14.25;12.00;;;;;9.69;74.78;103086.34;5055736;28;45339;-71
2022/02/08 08:16:25;;;;;;;;;14.75;10.00;;;;;9.76;74.54;103096.00;5056289;28;45554;-72
2022/02/08 08:21:26;;;;;;;;;11.00;8.00;;;;;9.83;74.86;103087.22;5054774;28;45656;-72
2022/02/08 08:23:52;;;;;;;;;21.00;15.00;;;;;9.84;74.53;103078.44;5052755;28;45569;-72
2022/02/08 08:26:17;;;;;;;;;14.00;9.50;;;;;9.90;74.53;103088.94;5055106;28;45947;-72
2022/02/08 08:28:43;;;;;;;;;16.50;11.25;;;;;9.94;74.56;103090.69;5057417;28;45384;-72
2022/02/08 08:31:08;;;;;;;;;19.00;12.75;;;;;9.88;74.43;103066.19;5054230;28;45665;-71
2022/02/08 08:33:34;;;;;;;;;16.50;14.25;;;;;9.96;74.53;103082.78;5054659;28;45527;-72
2022/02/08 08:35:59;;;;;;;;;19.25;12.75;;;;;9.99;74.49;103088.03;5054898;28;45352;-69
2022/02/08 08:38:26;;;;;;;;;14.50;11.25;;;;;10.00;74.44;103088.91;5054141;28;45458;-72
2022/02/08 08:51:50;;;;;;;;;13.00;13.00;;;;;10.02;74.42;103092.41;5010374;28;45496;-71
2022/02/08 08:54:16;;;;;;;;;10.50;8.00;;;;;9.97;74.62;103084.56;5013636;28;45617;-71
2022/02/08 08:56:45;;;;;;;;;16.75;15.75;;;;;9.94;74.57;103080.19;5013561;28;45627;-71
2022/02/08 08:59:14;;;;;;;;;15.25;12.75;;;;;9.96;74.87;103092.44;5013956;28;45363;-71
2022/02/08 09:01:39;;;;;;;;;18.75;13.00;;;;;9.94;74.97;103090.69;5014561;28;45505;-71
2022/02/08 09:04:07;;;;;;;;;17.00;14.00;;;;;9.89;74.94;103081.94;5012510;28;46375;-71
2022/02/08 09:06:36;;;;;;;;;13.00;9.25;;;;;9.99;75.29;103095.06;5012252;28;45876;-71
2022/02/08 09:09:07;;;;;;;;;14.25;11.25;;;;;10.01;75.02;103093.28;5012901;28;46479;-71
2022/02/08 09:11:50;;;;;;;;;14.50;12.75;;;;;10.01;75.17;103091.53;5012970;28;45511;-68
2022/02/08 09:14:15;;;;;;;;;19.75;14.25;;;;;10.04;74.91;103096.78;5002536;28;45932;-72
2022/02/08 09:30:15;;;;;;;;;17.00;16.50;;;;;10.26;75.13;103080.97;4992933;28;45426;-71
2022/02/08 09:32:51;;;;;;;;;13.75;12.25;;;;;10.29;75.15;103087.09;4988924;28;45552;-71
2022/02/08 09:35:17;;;;;;;;;13.25;11.25;;;;;10.30;75.08;103080.09;4990939;28;45609;-71
2022/02/08 09:37:44;;;;;;;;;13.00;12.75;;;;;10.31;75.19;103082.69;4992462;28;45556;-71
2022/02/08 09:40:12;;;;;;;;;16.75;12.75;;;;;10.37;75.06;103080.03;4992466;28;45505;-73
2022/02/08 09:42:39;;;;;;;;;12.75;12.75;;;;;10.38;75.13;103081.78;4974844;28;45323;-74
2022/02/08 09:45:08;;;;;;;;;16.00;11.25;;;;;10.41;75.55;103081.78;4981007;28;45864;-74
2022/02/08 09:47:48;;;;;;;;;14.00;10.00;;;;;10.48;74.99;103082.63;4993030;28;45480;-72
2022/02/08 09:50:27;;;;;;;;;13.25;12.25;;;;;10.47;75.22;103075.63;4992378;28;45474;-71
2022/02/08 09:52:58;;;;;;;;;12.75;12.75;;;;;10.56;75.12;103080.84;4990468;28;45396;-71
2022/02/08 09:55:25;;;;;;;;;18.00;13.50;;;;;10.59;75.09;103080.78;5022775;28;47087;-71
2022/02/08 09:57:51;;;;;;;;;14.75;11.75;;;;;10.58;75.48;103076.44;5052522;28;45424;-71
2022/02/08 10:00:18;;;;;;;;;17.25;13.50;;;;;10.63;75.77;103087.78;5052065;28;45494;-71
2022/02/08 10:02:44;;;;;;;;;15.25;15.25;;;;;10.70;75.28;103076.38;5051637;28;45515;-71
2022/02/08 10:05:11;;;;;;;;;15.50;11.75;;;;;10.82;75.32;103077.19;5061074;28;58575;-71
2022/02/08 10:07:37;;;;;;;;;15.50;12.00;;;;;10.87;75.11;103071.00;5060516;28;45927;-71
2022/02/08 10:10:23;;;;;;;;;12.00;11.00;;;;;10.99;75.13;103072.66;5053951;27;45647;-71
2022/02/08 10:23:55;;;;;;;;;22.25;13.00;;;;;11.39;74.00;103075.84;5052607;28;45443;-71
2022/02/08 10:26:26;;;;;;;;;13.50;12.75;;;;;11.39;74.33;103072.34;5045762;28;46476;-71
2022/02/08 10:28:55;;;;;;;;;13.00;13.00;;;;;11.47;74.01;103073.13;5053888;28;45820;-71
2022/02/08 10:40:19;;;;;;;;;13.00;10.75;;;;;11.83;73.08;103081.59;4991485;28;45946;-72
2022/02/08 10:42:59;;;;;;;;;14.25;12.75;;;;;11.87;73.74;103076.28;4977325;28;45796;-71
2022/02/08 10:45:29;;;;;;;;;13.25;11.50;;;;;11.95;73.59;103076.19;4990324;28;45565;-71
2022/02/08 10:48:04;;;;;;;;;12.50;8.00;;;;;12.02;73.10;103077.88;4991398;28;45681;-71
2022/02/08 10:50:36;;;;;;;;;18.25;13.75;;;;;12.06;72.96;103073.41;4977916;28;45941;-71
2022/02/08 10:53:04;;;;;;;;;13.50;11.75;;;;;12.17;73.08;103075.06;4991949;28;45841;-71
2022/02/08 10:55:40;;;;;;;;;11.50;7.00;;;;;12.25;72.63;103074.94;4992843;28;45454;-71
2022/02/08 11:03:27;;;;;;;;;11.75;9.00;;;;;12.32;72.58;103078.38;4990984;28;45208;-71
2022/02/08 11:08:37;;;;;;;;;11.25;8.75;;;;;12.41;72.14;103080.91;4976699;28;46281;-71
2022/02/08 11:14:26;;;;;;;;;9.25;8.75;;;;;12.43;72.17;103063.31;5051532;28;45675;-71
2022/02/08 11:25:02;;;;;;;;;10.50;9.25;;;;;12.80;71.55;103053.09;5052673;28;45570;-70
2022/02/08 11:27:36;;;;;;;;;14.50;9.25;;;;;12.82;70.97;103051.28;5052467;28;45729;-69
2022/02/08 11:30:16;;;;;;;;;15.75;10.25;;;;;12.79;71.19;103051.34;5051926;28;46658;-72
2022/02/08 11:33:19;;;;;;;;;9.00;6.25;;;;;12.86;71.15;103047.72;5052052;28;45879;-71
2022/02/08 11:46:53;;;;;;;;;16.25;11.50;;;;;13.19;69.83;103041.00;5057560;28;45325;-70
2022/02/08 11:49:46;;;;;;;;;44.50;32.50;;;;;13.18;69.83;103028.72;5053794;28;45377;-69
2022/02/08 12:02:47;;;;;;;;;17.00;12.00;;;;;13.51;69.09;103010.53;4993413;28;46036;-71
2022/02/08 12:05:28;;;;;;;;;13.25;12.75;;;;;13.52;68.67;103007.00;4997294;28;45520;-71
2022/02/08 12:07:58;;;;;;;;;12.75;10.75;;;;;13.52;69.01;102999.06;5010690;28;45562;-71
2022/02/08 12:10:30;;;;;;;;;16.75;12.75;;;;;13.54;68.73;103005.22;5004500;28;45613;-71
2022/02/08 12:51:58;;;;;;;;;13.00;12.00;;;;;13.71;67.93;102955.53;4994299;28;45449;-71
2022/02/08 12:55:11;;;;;;;;;16.25;11.00;;;;;13.65;67.90;102942.44;4996206;28;45578;-71
2022/02/08 12:57:15;;;;;;;;;13.25;12.25;;;;;13.69;68.20;102949.41;4987637;28;45813;-71
2022/02/08 13:00:06;;;;;;;;;13.25;11.00;;;;;13.67;68.07;102958.25;4999567;28;45920;-71
2022/02/08 13:02:56;;;;;;;;;10.25;10.25;;;;;13.61;68.22;102958.41;5006401;28;45534;-72
2022/02/08 13:06:04;;;;;;;;;14.75;11.50;;;;;13.49;68.59;102941.03;5006854;28;45454;-71
2022/02/08 14:07:01;;;;;;;;;9.25;7.75;;;;;13.76;68.47;102894.66;5032183;28;45962;-72
2022/02/08 14:20:04;;;;;;;;;5.00;4.50;;;;;13.74;68.71;102897.34;5049966;28;45356;-71
2022/02/08 14:22:47;;;;;;;;;5.00;4.00;;;;;13.74;68.76;102894.69;5053726;28;45368;-71
2022/02/08 14:30:31;;;;;;;;;3.00;3.00;;;;;13.62;67.81;102887.03;5051350;28;45549;-72
2022/02/08 14:33:27;;;;;;;;;5.50;3.00;;;;;13.54;67.83;102897.75;5051393;28;45342;-72
2022/02/08 15:13:04;;;;;;;;;6.50;5.25;;;;;13.63;68.63;102882.63;5038974;28;46087;-72
2022/02/08 15:17:55;;;;;;;;;5.25;4.25;;;;;13.60;68.37;102888.84;5034432;28;45562;-72
2022/02/08 15:20:23;;;;;;;;;9.75;6.50;;;;;13.56;67.64;102885.38;5028413;28;45756;-71
2022/02/08 15:22:49;;;;;;;;;4.25;4.25;;;;;13.48;67.55;102884.69;5037653;28;45687;-71
2022/02/08 15:25:14;;;;;;;;;5.75;4.50;;;;;13.40;67.81;102881.31;5042058;28;45561;-72
2022/02/08 15:27:43;;;;;;;;;5.25;5.25;;;;;13.40;68.08;102891.88;5038895;28;45606;-72
2022/02/08 15:30:09;;;;;;;;;9.00;6.50;;;;;13.36;68.08;102891.97;5034584;28;45760;-71
2022/02/08 15:32:36;;;;;;;;;7.50;5.00;;;;;13.34;68.18;102891.16;5031662;28;45474;-72
2022/02/08 15:35:06;;;;;;;;;8.50;7.50;;;;;13.32;67.84;102886.78;5030952;28;45433;-71
2022/02/08 15:37:31;;;;;;;;;6.00;5.25;;;;;13.30;68.41;102890.31;5035229;28;46880;-72
2022/02/08 15:39:58;;;;;;;;;7.75;6.25;;;;;13.28;68.08;102881.56;5040776;28;47492;-72
2022/02/08 15:42:31;;;;;;;;;6.25;5.00;;;;;13.24;67.94;102886.03;5052557;28;45772;-71
2022/02/08 15:45:10;;;;;;;;;5.00;4.00;;;;;13.22;68.32;102887.84;5052699;28;45388;-71
2022/02/08 15:47:35;;;;;;;;;6.00;4.00;;;;;13.20;68.24;102886.09;5049375;28;45651;-71
2022/02/08 15:50:08;;;;;;;;;4.50;3.00;;;;;13.18;68.24;102883.50;5052808;28;59063;-72
2022/02/08 15:55:15;;;;;;;;;4.50;4.50;;;;;13.13;68.42;102882.72;5049850;28;46101;-71
2022/02/08 16:00:35;;;;;;;;;6.00;5.25;;;;;13.09;68.77;102881.03;5050099;28;45310;-71
2022/02/08 16:08:26;;;;;;;;;5.25;5.00;;;;;13.04;69.26;102872.31;5050922;28;45389;-71
2022/02/08 16:11:48;;;;;;;;;5.75;4.75;;;;;13.00;69.12;102875.94;5068759;28;45745;-71
2022/02/08 16:13:48;;;;;;;;;8.25;5.00;;;;;12.94;69.48;102871.63;5050124;28;45300;-71
2022/02/08 16:19:05;;;;;;;;;9.00;6.00;;;;;12.86;70.17;102872.69;5051183;28;45697;-72
2022/02/08 16:33:00;;;;;;;;;10.00;9.75;;;;;12.54;71.58;102884.69;5030852;28;45484;-71
2022/02/08 16:59:13;;;;;;;;;10.75;9.00;;;;;12.15;72.55;102891.44;5030347;28;45528;-71
2022/02/08 17:01:38;;;;;;;;;7.25;7.00;;;;;12.11;72.95;102898.53;5036091;28;45718;-71
2022/02/08 17:04:08;;;;;;;;;9.25;8.00;;;;;12.09;73.11;102891.53;5053982;28;45546;-71
2022/02/08 17:06:34;;;;;;;;;8.50;8.25;;;;;12.08;73.07;102900.34;5054656;28;45334;-71
2022/02/08 17:09:09;;;;;;;;;16.75;11.00;;;;;11.94;73.02;102884.72;5054987;28;45452;-71
2022/02/08 17:11:41;;;;;;;;;10.75;10.00;;;;;12.01;73.25;102896.94;5052931;28;45831;-71
2022/02/08 17:17:02;;;;;;;;;8.25;8.00;;;;;11.92;73.33;102889.16;5056035;28;45274;-71
2022/02/08 17:49:36;;;;;;;;;10.50;7.50;;;;;11.66;74.22;102892.97;4968416;28;45368;-70
2022/02/08 17:52:02;;;;;;;;;10.00;8.25;;;;;11.61;74.43;102883.41;4971681;28;45621;-70
2022/02/08 17:54:27;;;;;;;;;10.00;8.50;;;;;11.65;74.42;102893.00;4968153;28;46231;-70
2022/02/08 17:56:54;;;;;;;;;9.25;9.25;;;;;11.66;74.28;102903.50;4972998;28;49879;-69
2022/02/08 17:59:24;;;;;;;;;11.00;9.75;;;;;11.67;74.29;102897.34;4973443;28;45399;-70
2022/02/08 18:01:50;;;;;;;;;8.25;8.25;;;;;11.67;74.26;102899.97;4981400;28;46948;-70
2022/02/08 18:04:16;;;;;;;;;8.50;8.25;;;;;11.68;74.25;102904.34;5004808;28;45776;-70
2022/02/08 18:06:41;;;;;;;;;10.25;7.00;;;;;11.69;74.31;102900.84;5022322;28;45837;-69
2022/02/08 18:09:06;;;;;;;;;17.25;12.25;;;;;11.70;74.27;102913.13;5050770;28;45635;-69
2022/02/08 18:11:38;;;;;;;;;9.00;7.75;;;;;11.70;74.26;102892.06;5050520;28;45539;-70
2022/02/08 18:14:04;;;;;;;;;9.00;9.00;;;;;11.72;74.32;102906.06;5047222;28;46161;-69
2022/02/08 18:16:33;;;;;;;;;9.75;9.50;;;;;11.79;74.30;102905.97;5052215;28;45950;-69
2022/02/08 18:19:03;;;;;;;;;9.75;4.75;;;;;11.75;74.19;102898.13;5049732;28;45541;-70
2022/02/08 18:21:34;;;;;;;;;10.25;9.25;;;;;11.72;74.35;102895.53;5049899;28;45777;-70
2022/02/08 19:07:44;;;;;;;;;7.50;7.50;;;;;11.64;74.31;102904.41;5056050;28;45624;-71
2022/02/08 19:18:45;;;;;;;;;8.75;8.00;;;;;11.54;74.58;102894.88;5004376;28;45572;-70
2022/02/08 19:24:05;;;;;;;;;5.00;5.00;;;;;11.49;74.57;102895.84;4995579;28;45697;-70
2022/02/08 19:26:31;;;;;;;;;10.25;5.00;;;;;11.47;74.69;102892.31;5006859;28;45476;-69
2022/02/08 19:28:58;;;;;;;;;3.25;3.25;;;;;11.47;74.69;102886.19;5003459;28;46156;-69
2022/02/08 19:31:23;;;;;;;;;8.75;7.00;;;;;11.47;74.89;102884.44;5006750;28;45535;-68
2022/02/08 19:33:51;;;;;;;;;6.00;5.50;;;;;11.37;74.61;102868.75;5008141;28;45601;-67
2022/02/08 19:36:18;;;;;;;;;74.50;56.50;;;;;11.37;74.78;102881.91;5004365;28;45874;-68
2022/02/08 19:38:48;;;;;;;;;9.00;6.50;;;;;11.36;74.90;102880.19;5007364;28;45476;-70